BIENTÔT MET'MAP
version 2.0 !

Prévue avant fin octobre,
la nouvelle version sera
plus belle, plus complète
et hébergée sur un serveur
3 fois plus puissant...
et toujours gratuite !


Pas compatible ?
Essayez la version Mobile !

SE CONNECTER : | S'inscrire | Disclaimer | Découvrir Orbifly |
Code OACI :
Lgende : VFR VFR Marginal IFR IFR Intensif IFR Trs Intensif
Visi :
Plafond :
>= 8 km
>= 3000ft
5 8 km
1000 3000 ft
1500m 5 km
500 1000 ft
800 1500m
200 500 ft
< 800m
< 200 ft

METAR - EDLP Paderborn Lippstadt - 27 Jan 2020 22:18 UTC
Data Sources :     NOAA   


- Altitude de l'aérodrome : 699 ft
- Code IATA : PAD
- Pas de NOTAMs connus.


EDLP - Paderborn Lippstadt

Dernier METAR connu : 2015/08/11 07:50 EDLP 110750Z VRB02KT 8000 BKN011 15/13 Q1019 RMK ATIS NOV
TAF TAF EDLP
Valide du 27 à 18h jusqu'au 28 à 18h UTC


271700Z 2718/2818 18013KT 9999 BKN035
PROB30
TEMPO 2722/2803 RA
TEMPO 2803/2814 SHRA BKN020TCU
PROB30
TEMPO 2806/2812 27025G40KT TSGS BKN015CB
BECMG 2808/2811 24020G35KT
PROB30
TEMPO 2814/2817 27025G40KT 4500 SHSNRA BKN015CB
BECMG 2816/2818 24015G25KT

Source NOAA


MET'MAP, la Météo Aéronautique d'un coup d'oeil ! - Copyright ORBIFLY Décembre 2007

Développement & Programmation : Alexandra Zaïnal
Co-Développement : Marc-Olivier Méhu
Soutien technique & logistique : Manuel Goepfert
Conception & Financement : Baudouin d'Aumeries